createdAt,value
2022-08-09T00:01:19.762Z,17.61
2022-08-09T00:04:05.800Z,17.62
2022-08-09T00:06:36.440Z,17.64
2022-08-09T00:09:04.117Z,17.64
2022-08-09T00:11:58.606Z,17.63
2022-08-09T00:14:21.925Z,17.56
2022-08-09T00:16:58.268Z,17.47
2022-08-09T00:19:27.572Z,17.41
2022-08-09T00:21:57.025Z,17.35
2022-08-09T00:24:27.431Z,17.31
2022-08-09T00:26:57.367Z,17.28
2022-08-09T00:30:10.270Z,17.26
2022-08-09T00:32:26.793Z,17.24
2022-08-09T00:35:03.223Z,17.25
2022-08-09T00:37:32.433Z,17.29
2022-08-09T00:40:12.431Z,17.35
2022-08-09T00:44:19.572Z,17.39
2022-08-09T00:45:34.735Z,17.43
2022-08-09T00:48:04.873Z,17.46
2022-08-09T00:50:34.225Z,17.47
2022-08-09T00:53:10.435Z,17.48
2022-08-09T00:56:04.808Z,17.46
2022-08-09T00:58:31.134Z,17.45
2022-08-09T01:00:59.613Z,17.43
2022-08-09T01:03:54.856Z,17.40
2022-08-09T01:06:53.175Z,17.35
2022-08-09T01:09:37.174Z,17.30
2022-08-09T01:12:47.367Z,17.27
2022-08-09T01:15:24.268Z,17.22
2022-08-09T01:17:58.832Z,17.21
2022-08-09T01:20:41.115Z,17.20
2022-08-09T01:24:02.975Z,17.21
2022-08-09T01:26:46.282Z,17.21
2022-08-09T01:29:41.103Z,17.21
2022-08-09T01:32:31.397Z,17.19
2022-08-09T01:35:28.418Z,17.20
2022-08-09T01:38:07.872Z,17.22
2022-08-09T01:40:53.075Z,17.23
2022-08-09T01:43:47.963Z,17.24
2022-08-09T01:46:27.379Z,17.24
2022-08-09T01:49:10.849Z,17.22
2022-08-09T01:51:53.095Z,17.17
2022-08-09T01:54:32.935Z,17.11
2022-08-09T01:57:10.697Z,17.04
2022-08-09T01:59:52.358Z,16.98
2022-08-09T02:02:30.083Z,16.96
2022-08-09T02:05:11.745Z,16.97
2022-08-09T02:08:40.230Z,17.00
2022-08-09T02:10:51.146Z,17.04
2022-08-09T02:13:22.053Z,17.08
2022-08-09T02:15:56.418Z,17.09
2022-08-09T02:18:28.837Z,17.14
2022-08-09T02:21:02.844Z,17.17
2022-08-09T02:23:40.136Z,17.21
2022-08-09T02:26:26.834Z,17.23
2022-08-09T02:29:00.210Z,17.23
2022-08-09T02:31:36.232Z,17.24
2022-08-09T02:34:41.014Z,17.23
2022-08-09T02:37:14.723Z,17.21
2022-08-09T02:39:49.633Z,17.17
2022-08-09T02:42:24.861Z,17.11
2022-08-09T02:44:56.861Z,17.09
2022-08-09T02:47:26.340Z,17.11
2022-08-09T02:50:09.418Z,17.15
2022-08-09T02:52:44.869Z,17.19
2022-08-09T02:55:21.035Z,17.21
2022-08-09T02:58:00.299Z,17.23
2022-08-09T03:00:57.741Z,17.25
2022-08-09T03:03:37.329Z,17.24
2022-08-09T03:06:18.415Z,17.24
2022-08-09T03:08:52.829Z,17.25
2022-08-09T03:12:04.877Z,17.23
2022-08-09T03:14:12.848Z,17.20
2022-08-09T03:16:44.812Z,17.18
2022-08-09T03:19:58.884Z,17.17
2022-08-09T03:22:06.072Z,17.16
2022-08-09T03:24:42.548Z,17.15
2022-08-09T03:27:21.617Z,17.14
2022-08-09T03:29:57.571Z,17.15
2022-08-09T03:32:31.387Z,17.17
2022-08-09T03:35:00.368Z,17.19
2022-08-09T03:37:56.377Z,17.23
2022-08-09T03:40:18.075Z,17.26
2022-08-09T03:42:46.614Z,17.27
2022-08-09T03:45:15.482Z,17.27
2022-08-09T03:47:46.691Z,17.27
2022-08-09T03:50:28.029Z,17.28
2022-08-09T03:53:03.103Z,17.29
2022-08-09T03:55:36.185Z,17.28
2022-08-09T03:58:16.394Z,17.27
2022-08-09T04:00:45.665Z,17.27
2022-08-09T04:03:24.554Z,17.23
2022-08-09T04:06:04.670Z,17.21
2022-08-09T04:08:33.548Z,17.19
2022-08-09T04:11:02.030Z,17.18
2022-08-09T04:14:37.231Z,17.14
2022-08-09T04:16:21.237Z,17.09
2022-08-09T04:18:51.241Z,17.09
2022-08-09T04:21:19.571Z,17.12
2022-08-09T04:23:53.874Z,17.13
2022-08-09T04:26:23.431Z,17.18
2022-08-09T04:28:52.385Z,17.22
2022-08-09T04:31:22.729Z,17.26
2022-08-09T04:33:56.713Z,17.27
2022-08-09T04:36:28.583Z,17.29
2022-08-09T04:38:59.857Z,17.31
2022-08-09T04:41:32.955Z,17.33
2022-08-09T04:44:11.114Z,17.35
2022-08-09T04:46:58.669Z,17.36
2022-08-09T04:49:53.296Z,17.39
2022-08-09T04:52:26.475Z,17.44
2022-08-09T04:54:57.386Z,17.50
2022-08-09T04:57:26.160Z,17.57
2022-08-09T04:59:55.519Z,17.67
2022-08-09T05:02:27.230Z,17.77
2022-08-09T05:04:56.111Z,17.84
2022-08-09T05:07:25.213Z,17.92
2022-08-09T05:09:57.662Z,17.99
2022-08-09T05:12:26.720Z,18.06
2022-08-09T05:14:54.312Z,18.12
2022-08-09T05:18:38.208Z,18.19
2022-08-09T05:20:11.175Z,18.25
2022-08-09T05:23:56.698Z,18.29
2022-08-09T05:25:28.313Z,18.33
2022-08-09T05:28:00.588Z,18.37
2022-08-09T05:30:30.087Z,18.40
2022-08-09T05:33:00.575Z,18.42
2022-08-09T05:35:29.799Z,18.46
2022-08-09T05:37:59.561Z,18.51
2022-08-09T05:40:28.671Z,18.54
2022-08-09T05:42:57.389Z,18.58
2022-08-09T05:45:25.680Z,18.61
2022-08-09T05:48:11.406Z,18.64
2022-08-09T05:50:51.128Z,18.68
2022-08-09T05:53:33.187Z,18.71
2022-08-09T05:56:01.846Z,18.75
2022-08-09T05:58:29.612Z,18.77
2022-08-09T06:00:58.510Z,18.79
2022-08-09T06:03:44.195Z,18.83
2022-08-09T06:06:14.533Z,18.87
2022-08-09T06:08:42.249Z,18.91
2022-08-09T06:11:17.307Z,18.92
2022-08-09T06:13:47.466Z,18.93
2022-08-09T06:16:16.247Z,18.95
2022-08-09T06:18:44.158Z,18.98
2022-08-09T06:21:12.311Z,19.02
2022-08-09T06:23:55.467Z,19.07
2022-08-09T06:26:28.641Z,19.11
2022-08-09T06:29:00.823Z,19.15
2022-08-09T06:31:40.050Z,19.21
2022-08-09T06:34:26.302Z,19.28
2022-08-09T06:36:59.794Z,19.36
2022-08-09T06:39:48.739Z,19.44
2022-08-09T06:42:24.862Z,19.48
2022-08-09T06:44:58.024Z,19.50
2022-08-09T06:47:30.309Z,19.53
2022-08-09T06:50:14.671Z,19.56
2022-08-09T06:52:48.561Z,19.58
2022-08-09T06:55:22.456Z,19.62
2022-08-09T06:58:02.775Z,19.65
2022-08-09T07:00:48.872Z,19.72
2022-08-09T07:03:27.756Z,19.79
2022-08-09T07:06:04.058Z,19.87
2022-08-09T07:08:34.789Z,19.94
2022-08-09T07:11:06.746Z,20.01
2022-08-09T07:13:45.201Z,20.10
2022-08-09T07:16:41.668Z,20.21
2022-08-09T07:19:15.675Z,20.32
2022-08-09T07:21:57.831Z,20.38
2022-08-09T07:24:32.815Z,20.43
2022-08-09T07:27:33.145Z,20.50
2022-08-09T07:30:00.036Z,20.57
2022-08-09T07:32:33.680Z,20.64
2022-08-09T07:35:08.003Z,20.74
2022-08-09T07:37:44.584Z,20.81
2022-08-09T07:40:18.769Z,20.90
2022-08-09T07:42:50.283Z,20.99
2022-08-09T07:45:23.781Z,21.10
2022-08-09T07:48:07.590Z,21.22
2022-08-09T07:51:09.507Z,21.31
2022-08-09T07:54:04.402Z,21.37
2022-08-09T07:56:28.769Z,21.46
2022-08-09T07:58:59.809Z,21.54
2022-08-09T08:01:32.960Z,21.61
2022-08-09T08:04:02.925Z,21.66
2022-08-09T08:06:32.682Z,21.73
2022-08-09T08:09:05.314Z,21.83
2022-08-09T08:12:09.796Z,21.92
2022-08-09T08:14:25.848Z,21.96
2022-08-09T08:17:07.690Z,21.99
2022-08-09T08:19:36.907Z,22.06
2022-08-09T08:22:05.380Z,22.15
2022-08-09T08:24:40.230Z,22.21
2022-08-09T08:27:17.220Z,22.24
2022-08-09T08:29:48.743Z,22.28
2022-08-09T08:32:28.799Z,22.34
2022-08-09T08:34:58.560Z,22.39
2022-08-09T08:37:41.226Z,22.39
2022-08-09T08:40:15.634Z,22.38
2022-08-09T08:42:47.290Z,22.36
2022-08-09T08:45:17.146Z,22.38
2022-08-09T08:48:05.667Z,22.43
2022-08-09T08:50:33.923Z,22.45
2022-08-09T08:53:03.001Z,22.48
2022-08-09T08:55:32.204Z,22.56
2022-08-09T08:58:00.487Z,22.62
2022-08-09T09:00:34.673Z,22.66
2022-08-09T09:03:11.306Z,22.71
2022-08-09T09:05:59.742Z,22.72
2022-08-09T09:08:40.454Z,22.77
2022-08-09T09:11:13.893Z,22.78
2022-08-09T09:13:56.199Z,22.78
2022-08-09T09:16:30.981Z,22.81
2022-08-09T09:22:16.378Z,22.87
2022-08-09T09:24:50.375Z,22.96
2022-08-09T09:28:04.300Z,23.07
2022-08-09T09:30:26.197Z,23.19
2022-08-09T09:33:16.782Z,23.29
2022-08-09T09:36:19.720Z,23.35
2022-08-09T09:38:50.595Z,23.38
2022-08-09T09:41:26.024Z,23.40
2022-08-09T09:44:12.793Z,23.39
2022-08-09T09:46:50.463Z,23.36
2022-08-09T09:49:31.761Z,23.37
2022-08-09T09:52:16.448Z,23.34
2022-08-09T09:55:16.799Z,23.31
2022-08-09T09:58:16.371Z,23.27
2022-08-09T10:00:54.945Z,23.27
2022-08-09T10:03:44.284Z,23.29
2022-08-09T10:06:13.274Z,23.35
2022-08-09T10:08:57.076Z,23.47
2022-08-09T10:12:04.440Z,23.56
2022-08-09T10:14:30.343Z,23.62
2022-08-09T10:17:11.277Z,23.65
2022-08-09T10:19:47.449Z,23.70
2022-08-09T10:22:33.724Z,23.75
2022-08-09T10:25:11.903Z,23.82
2022-08-09T10:27:54.531Z,23.92
2022-08-09T10:34:05.301Z,24.44
2022-08-09T10:36:09.742Z,24.71
2022-08-09T10:38:57.228Z,24.90
2022-08-09T10:41:28.271Z,24.95
2022-08-09T10:43:59.156Z,24.93
2022-08-09T10:47:01.380Z,24.93
2022-08-09T10:49:51.307Z,24.96
2022-08-09T10:52:37.179Z,24.98
2022-08-09T10:55:27.648Z,25.01
2022-08-09T10:57:59.909Z,25.02
2022-08-09T11:00:31.258Z,25.02
2022-08-09T11:03:11.409Z,25.05
2022-08-09T11:06:20.922Z,25.08
2022-08-09T11:08:53.496Z,25.09
2022-08-09T11:11:23.096Z,25.09
2022-08-09T11:14:28.118Z,25.18
2022-08-09T11:16:57.196Z,25.25
2022-08-09T11:20:12.252Z,25.29
2022-08-09T11:22:44.781Z,25.34
2022-08-09T11:25:15.338Z,25.36
2022-08-09T11:28:02.820Z,25.38
2022-08-09T11:30:37.729Z,25.35
2022-08-09T11:33:37.843Z,25.34
2022-08-09T11:36:07.018Z,25.29
2022-08-09T11:38:41.531Z,25.25
2022-08-09T11:41:13.441Z,25.26
2022-08-09T11:43:49.166Z,25.31
2022-08-09T11:46:26.877Z,25.35
2022-08-09T11:49:05.347Z,25.39
2022-08-09T11:53:03.627Z,25.45
2022-08-09T11:55:21.627Z,25.58
2022-08-09T11:58:30.303Z,25.61
2022-08-09T12:01:09.031Z,25.61
2022-08-09T12:03:56.990Z,25.51
2022-08-09T12:06:32.522Z,25.46
2022-08-09T12:09:17.632Z,25.50
2022-08-09T12:12:13.173Z,25.61
2022-08-09T12:15:04.054Z,25.71
2022-08-09T12:17:43.585Z,25.80
2022-08-09T12:20:16.452Z,25.98
2022-08-09T12:23:01.404Z,26.02
2022-08-09T12:25:37.402Z,26.05
2022-08-09T12:29:12.074Z,26.07
2022-08-09T12:31:02.799Z,26.10
2022-08-09T12:33:58.988Z,26.30
2022-08-09T12:36:32.335Z,26.67
2022-08-09T12:39:02.241Z,27.24
2022-08-09T12:41:39.189Z,27.84
2022-08-09T12:44:10.262Z,28.47
2022-08-09T12:46:48.642Z,29.34
2022-08-09T12:49:18.242Z,30.45
2022-08-09T12:52:03.661Z,31.60
2022-08-09T12:56:12.693Z,32.78
2022-08-09T12:57:46.796Z,33.69
2022-08-09T13:00:29.504Z,34.60
2022-08-09T13:03:00.442Z,35.69
2022-08-09T13:06:13.253Z,36.79
2022-08-09T13:08:39.765Z,37.73
2022-08-09T13:11:23.329Z,38.51
2022-08-09T13:14:36.885Z,39.32
2022-08-09T13:16:50.184Z,39.16
2022-08-09T13:20:08.774Z,39.84
2022-08-09T13:22:37.409Z,40.98
2022-08-09T13:25:15.271Z,41.62
2022-08-09T13:27:48.739Z,41.34
2022-08-09T13:30:51.225Z,40.67
2022-08-09T13:33:23.329Z,40.00
2022-08-09T13:36:39.656Z,39.24
2022-08-09T13:38:54.967Z,38.59
2022-08-09T13:41:59.483Z,39.01
2022-08-09T13:44:16.850Z,40.38
2022-08-09T13:47:27.371Z,41.57
2022-08-09T13:49:39.498Z,42.29
2022-08-09T13:52:23.455Z,43.03
2022-08-09T13:55:00.249Z,43.39
2022-08-09T13:57:39.562Z,43.78
2022-08-09T14:00:10.248Z,43.62
2022-08-09T14:03:04.462Z,43.61
2022-08-09T14:06:00.569Z,43.76
2022-08-09T14:08:22.491Z,43.48
2022-08-09T14:10:52.705Z,43.65
2022-08-09T14:14:15.718Z,43.79
2022-08-09T14:16:14.063Z,42.33
2022-08-09T14:18:45.942Z,40.39
2022-08-09T14:21:23.339Z,39.39
2022-08-09T14:23:56.549Z,39.23
2022-08-09T14:26:31.682Z,39.77
2022-08-09T14:29:08.291Z,40.31
2022-08-09T14:31:54.834Z,41.14
2022-08-09T14:34:30.831Z,41.67
2022-08-09T14:37:06.914Z,41.66
2022-08-09T14:39:46.855Z,41.79
2022-08-09T14:42:29.060Z,42.49
2022-08-09T14:46:39.445Z,42.97
2022-08-09T14:47:56.856Z,43.45
2022-08-09T14:50:25.849Z,43.68
2022-08-09T14:52:54.734Z,44.00
2022-08-09T14:55:22.389Z,44.26
2022-08-09T14:57:50.097Z,43.12
2022-08-09T15:00:18.346Z,40.98
2022-08-09T15:02:47.672Z,38.70
2022-08-09T15:05:19.808Z,37.59
2022-08-09T15:07:54.744Z,37.62
2022-08-09T15:10:26.495Z,36.29
2022-08-09T15:12:56.202Z,34.24
2022-08-09T15:15:24.831Z,32.47
2022-08-09T15:17:58.389Z,31.23
2022-08-09T15:21:58.349Z,30.28
2022-08-09T15:24:09.251Z,29.11
2022-08-09T15:26:09.003Z,28.16
2022-08-09T15:28:36.933Z,27.52
2022-08-09T15:31:17.898Z,27.08
2022-08-09T15:34:17.265Z,26.58
2022-08-09T15:36:34.131Z,26.14
2022-08-09T15:39:01.725Z,25.85
2022-08-09T15:41:31.798Z,25.55
2022-08-09T15:44:02.056Z,25.31
2022-08-09T15:46:32.930Z,25.03
2022-08-09T15:49:21.127Z,24.70
2022-08-09T15:52:04.712Z,24.35
2022-08-09T15:54:44.735Z,24.12
2022-08-09T15:57:19.030Z,23.93
2022-08-09T16:00:04.214Z,23.73
2022-08-09T16:02:32.642Z,23.57
2022-08-09T16:05:02.446Z,23.51
2022-08-09T16:07:38.906Z,23.45
2022-08-09T16:10:17.046Z,23.34
2022-08-09T16:12:58.020Z,23.17
2022-08-09T16:16:11.022Z,23.06
2022-08-09T16:18:14.269Z,22.97
2022-08-09T16:20:41.891Z,22.87
2022-08-09T16:23:11.454Z,22.79
2022-08-09T16:25:41.022Z,22.74
2022-08-09T16:28:12.199Z,22.75
2022-08-09T16:30:44.830Z,22.72
2022-08-09T16:33:23.200Z,22.76
2022-08-09T16:35:57.555Z,22.83
2022-08-09T16:38:27.765Z,22.96
2022-08-09T16:40:57.474Z,23.05
2022-08-09T16:43:26.731Z,23.12
2022-08-09T16:45:55.630Z,23.25
2022-08-09T16:48:39.114Z,23.41
2022-08-09T16:51:14.069Z,23.55
2022-08-09T16:54:09.050Z,23.65
2022-08-09T16:56:31.369Z,23.70
2022-08-09T16:59:01.819Z,23.74
2022-08-09T17:01:38.732Z,23.79
2022-08-09T17:04:06.888Z,23.85
2022-08-09T17:08:40.879Z,23.77
2022-08-09T17:09:43.850Z,23.63
2022-08-09T17:12:10.159Z,23.56
2022-08-09T17:14:37.776Z,23.52
2022-08-09T17:17:26.256Z,23.50
2022-08-09T17:20:28.461Z,23.41
2022-08-09T17:22:50.578Z,23.34
2022-08-09T17:25:22.231Z,23.32
2022-08-09T17:27:53.683Z,23.29
2022-08-09T17:30:25.719Z,23.18
2022-08-09T17:33:04.706Z,23.03
2022-08-09T17:35:40.788Z,22.88
2022-08-09T17:38:24.358Z,22.79
2022-08-09T17:40:57.231Z,22.71
2022-08-09T17:43:34.379Z,22.61
2022-08-09T17:46:06.911Z,22.45
2022-08-09T17:48:38.479Z,22.32
2022-08-09T17:51:17.881Z,22.19
2022-08-09T17:53:53.018Z,22.08
2022-08-09T17:56:27.251Z,21.99
2022-08-09T17:59:03.342Z,21.91
2022-08-09T18:01:57.863Z,21.82
2022-08-09T18:04:24.946Z,21.71
2022-08-09T18:06:55.151Z,21.57
2022-08-09T18:09:40.374Z,21.44
2022-08-09T18:12:17.147Z,21.28
2022-08-09T18:14:53.740Z,21.12
2022-08-09T18:17:27.549Z,20.97
2022-08-09T18:20:55.890Z,20.80
2022-08-09T18:23:05.026Z,20.65
2022-08-09T18:25:50.368Z,20.55
2022-08-09T18:30:42.911Z,20.41
2022-08-09T18:31:25.031Z,20.26
2022-08-09T18:34:05.230Z,20.09
2022-08-09T18:36:34.747Z,19.96
2022-08-09T18:39:05.939Z,19.81
2022-08-09T18:41:35.434Z,19.68
2022-08-09T18:44:13.020Z,19.57
2022-08-09T18:46:47.133Z,19.46
2022-08-09T18:49:27.514Z,19.39
2022-08-09T18:52:00.133Z,19.32
2022-08-09T18:54:30.118Z,19.26
2022-08-09T18:57:06.113Z,19.19
2022-08-09T18:59:48.563Z,19.10
2022-08-09T19:02:20.445Z,18.99
2022-08-09T19:05:14.916Z,18.89
2022-08-09T19:07:39.476Z,18.81
2022-08-09T19:10:13.967Z,18.75
2022-08-09T19:12:52.943Z,18.70
2022-08-09T19:15:34.580Z,18.63
2022-08-09T19:18:05.587Z,18.58
2022-08-09T19:20:39.079Z,18.54
2022-08-09T19:23:08.746Z,18.49
2022-08-09T19:26:02.041Z,18.44
2022-08-09T19:28:34.738Z,18.38
2022-08-09T19:31:07.663Z,18.33
2022-08-09T19:33:35.999Z,18.27
2022-08-09T19:36:04.981Z,18.22
2022-08-09T19:38:34.908Z,18.17
2022-08-09T19:41:07.383Z,18.14
2022-08-09T19:44:00.967Z,18.11
2022-08-09T19:46:34.271Z,18.07
2022-08-09T19:50:09.027Z,18.03
2022-08-09T19:51:55.220Z,17.93
2022-08-09T19:54:25.422Z,17.77
2022-08-09T19:56:54.838Z,17.54
2022-08-09T19:59:57.602Z,17.26
2022-08-09T20:02:36.244Z,17.02
2022-08-09T20:05:02.011Z,16.80
2022-08-09T20:07:57.078Z,16.66
2022-08-09T20:10:36.446Z,16.60
2022-08-09T20:13:07.813Z,16.60
2022-08-09T20:16:37.460Z,16.59
2022-08-09T20:18:28.059Z,16.56
2022-08-09T20:20:57.211Z,16.53
2022-08-09T20:23:38.460Z,16.50
2022-08-09T20:26:12.999Z,16.44
2022-08-09T20:28:48.789Z,16.36
2022-08-09T20:31:18.665Z,16.28
2022-08-09T20:33:52.400Z,16.27
2022-08-09T20:36:27.244Z,16.28
2022-08-09T20:40:13.554Z,16.28
2022-08-09T20:41:43.342Z,16.26
2022-08-09T20:44:11.189Z,16.27
2022-08-09T20:46:43.048Z,16.31
2022-08-09T20:49:15.712Z,16.35
2022-08-09T20:51:45.412Z,16.38
2022-08-09T20:54:19.025Z,16.32
2022-08-09T20:56:49.765Z,16.21
2022-08-09T20:59:50.249Z,16.12
2022-08-09T21:02:12.178Z,16.02
2022-08-09T21:05:54.620Z,15.93
2022-08-09T21:07:40.418Z,15.83
2022-08-09T21:10:10.961Z,15.77
2022-08-09T21:12:39.722Z,15.76
2022-08-09T21:15:12.957Z,15.76
2022-08-09T21:18:21.268Z,15.73
2022-08-09T21:20:31.204Z,15.70
2022-08-09T21:23:00.948Z,15.68
2022-08-09T21:25:56.035Z,15.67
2022-08-09T21:28:33.260Z,15.66
2022-08-09T21:31:17.343Z,15.65
2022-08-09T21:33:51.082Z,15.63
2022-08-09T21:36:23.033Z,15.63
2022-08-09T21:38:57.925Z,15.63
2022-08-09T21:42:04.514Z,15.62
2022-08-09T21:44:33.206Z,15.58
2022-08-09T21:47:04.907Z,15.55
2022-08-09T21:49:39.475Z,15.53
2022-08-09T21:52:16.723Z,15.49
2022-08-09T21:54:53.667Z,15.45
2022-08-09T21:57:38.250Z,15.41
2022-08-09T22:00:25.710Z,15.39
2022-08-09T22:02:59.181Z,15.36
2022-08-09T22:05:37.002Z,15.36
2022-08-09T22:08:14.807Z,15.38
2022-08-09T22:11:00.956Z,15.41
2022-08-09T22:13:35.593Z,15.44
2022-08-09T22:16:07.453Z,15.42
2022-08-09T22:18:52.258Z,15.35
2022-08-09T22:21:27.405Z,15.31
2022-08-09T22:24:16.713Z,15.27
2022-08-09T22:26:51.050Z,15.24
2022-08-09T22:29:28.982Z,15.17
2022-08-09T22:32:00.326Z,15.13
2022-08-09T22:34:28.223Z,15.11
2022-08-09T22:36:58.431Z,15.10
2022-08-09T22:39:57.229Z,15.08
2022-08-09T22:42:21.380Z,15.08
2022-08-09T22:48:05.001Z,15.08
2022-08-09T22:48:14.694Z,15.09
2022-08-09T22:50:30.667Z,15.07
2022-08-09T22:52:59.769Z,15.05
2022-08-09T22:56:06.273Z,15.05
2022-08-09T22:58:33.062Z,14.95
2022-08-09T23:01:03.081Z,14.75
2022-08-09T23:04:04.093Z,14.59
2022-08-09T23:06:29.886Z,14.50
2022-08-09T23:09:06.984Z,14.52
2022-08-09T23:11:35.103Z,14.55
2022-08-09T23:14:03.979Z,14.58
2022-08-09T23:16:31.920Z,14.62
2022-08-09T23:19:00.814Z,14.66
2022-08-09T23:21:33.958Z,14.67
2022-08-09T23:24:07.109Z,14.66
2022-08-09T23:26:36.490Z,14.62
2022-08-09T23:29:13.814Z,14.57
2022-08-09T23:31:42.097Z,14.50
2022-08-09T23:34:09.900Z,14.43
2022-08-09T23:36:37.717Z,14.41
2022-08-09T23:39:07.651Z,14.36
2022-08-09T23:41:35.496Z,14.33
2022-08-09T23:44:04.388Z,14.25
2022-08-09T23:46:32.943Z,14.16
2022-08-09T23:49:01.254Z,14.05
2022-08-09T23:51:29.198Z,13.95
2022-08-09T23:54:02.732Z,13.86
2022-08-09T23:56:52.064Z,13.76
2022-08-09T23:59:21.397Z,13.67
